createdAt,value
2018-08-20T00:02:24.113Z,3.53
2018-08-20T00:04:51.628Z,8.23
2018-08-20T00:07:19.135Z,3.33
2018-08-20T00:09:46.659Z,5.33
2018-08-20T00:12:15.864Z,4.30
2018-08-20T00:14:43.349Z,5.93
2018-08-20T00:17:10.817Z,4.53
2018-08-20T00:19:40.184Z,3.67
2018-08-20T00:22:07.805Z,4.97
2018-08-20T00:24:35.299Z,2.90
2018-08-20T00:27:02.999Z,2.83
2018-08-20T00:29:30.748Z,4.93
2018-08-20T00:31:58.243Z,4.07
2018-08-20T00:34:25.740Z,3.40
2018-08-20T00:36:53.211Z,6.87
2018-08-20T00:39:20.689Z,3.57
2018-08-20T00:41:48.155Z,2.10
2018-08-20T00:44:16.655Z,3.43
2018-08-20T00:46:44.813Z,6.27
2018-08-20T00:49:13.474Z,6.30
2018-08-20T00:51:40.951Z,4.83
2018-08-20T00:54:08.491Z,4.80
2018-08-20T00:56:35.959Z,6.43
2018-08-20T00:59:03.699Z,4.47
2018-08-20T01:01:31.487Z,7.07
2018-08-20T01:03:59.525Z,8.20
2018-08-20T01:06:27.001Z,4.23
2018-08-20T01:08:54.514Z,3.93
2018-08-20T01:11:22.052Z,3.97
2018-08-20T01:13:49.639Z,4.50
2018-08-20T01:16:17.179Z,6.63
2018-08-20T01:18:44.641Z,3.47
2018-08-20T01:21:12.371Z,3.83
2018-08-20T01:23:39.851Z,5.33
2018-08-20T01:26:07.337Z,4.77
2018-08-20T01:28:34.820Z,6.03
2018-08-20T01:31:02.297Z,2.73
2018-08-20T01:33:29.763Z,3.43
2018-08-20T01:35:57.225Z,3.97
2018-08-20T01:38:24.724Z,7.10
2018-08-20T01:40:52.175Z,5.33
2018-08-20T01:43:19.665Z,7.80
2018-08-20T01:45:47.250Z,5.53
2018-08-20T01:48:14.737Z,4.83
2018-08-20T01:50:42.237Z,4.80
2018-08-20T01:53:09.711Z,5.83
2018-08-20T01:55:37.203Z,7.97
2018-08-20T01:58:04.739Z,6.50
2018-08-20T02:00:32.242Z,3.60
2018-08-20T02:03:03.412Z,6.43
2018-08-20T02:05:31.063Z,4.30
2018-08-20T02:07:58.708Z,7.43
2018-08-20T02:10:26.508Z,5.50
2018-08-20T02:12:54.075Z,6.60
2018-08-20T02:15:21.955Z,4.87
2018-08-20T02:17:49.445Z,7.03
2018-08-20T02:20:16.915Z,5.63
2018-08-20T02:22:44.432Z,5.63
2018-08-20T02:25:11.923Z,6.47
2018-08-20T02:27:39.461Z,8.03
2018-08-20T02:30:07.204Z,7.57
2018-08-20T02:32:35.155Z,8.27
2018-08-20T02:35:02.727Z,7.23
2018-08-20T02:37:35.661Z,6.73
2018-08-20T02:40:05.291Z,9.73
2018-08-20T02:42:33.489Z,8.53
2018-08-20T02:45:01.355Z,6.93
2018-08-20T02:47:28.858Z,8.77
2018-08-20T02:49:56.358Z,10.67
2018-08-20T02:52:23.898Z,6.70
2018-08-20T02:54:51.388Z,10.27
2018-08-20T02:57:18.868Z,13.97
2018-08-20T02:59:46.380Z,7.20
2018-08-20T03:02:13.857Z,9.53
2018-08-20T03:04:41.319Z,6.73
2018-08-20T03:07:08.820Z,7.73
2018-08-20T03:09:36.273Z,10.80
2018-08-20T03:12:03.809Z,8.47
2018-08-20T03:14:31.293Z,10.53
2018-08-20T03:16:58.773Z,13.67
2018-08-20T03:19:26.256Z,8.13
2018-08-20T03:21:53.734Z,9.43
2018-08-20T03:24:21.226Z,9.83
2018-08-20T03:26:48.764Z,11.73
2018-08-20T03:29:16.284Z,14.17
2018-08-20T03:31:43.790Z,9.20
2018-08-20T03:34:11.249Z,10.10
2018-08-20T03:36:38.750Z,10.57
2018-08-20T03:39:06.950Z,11.27
2018-08-20T03:41:34.486Z,11.03
2018-08-20T03:44:02.080Z,9.13
2018-08-20T03:46:29.558Z,11.93
2018-08-20T03:48:57.009Z,11.23
2018-08-20T03:51:24.490Z,12.87
2018-08-20T03:53:52.012Z,10.70
2018-08-20T03:56:19.470Z,12.20
2018-08-20T03:58:47.026Z,11.27
2018-08-20T04:01:14.486Z,10.23
2018-08-20T04:03:41.960Z,13.00
2018-08-20T04:06:09.464Z,11.13
2018-08-20T04:08:36.947Z,10.30
2018-08-20T04:11:04.390Z,11.07
2018-08-20T04:13:31.856Z,11.90
2018-08-20T04:15:59.332Z,8.40
2018-08-20T04:18:26.804Z,15.90
2018-08-20T04:20:54.272Z,9.90
2018-08-20T04:23:21.748Z,10.17
2018-08-20T04:25:49.212Z,10.43
2018-08-20T04:28:16.704Z,15.77
2018-08-20T04:30:44.237Z,11.17
2018-08-20T04:33:11.705Z,11.60
2018-08-20T04:35:39.203Z,14.17
2018-08-20T04:38:06.712Z,13.10
2018-08-20T04:40:34.226Z,13.87
2018-08-20T04:43:01.744Z,16.67
2018-08-20T04:45:29.247Z,13.67
2018-08-20T04:47:56.744Z,14.20
2018-08-20T04:50:24.356Z,12.80
2018-08-20T04:52:52.255Z,11.30
2018-08-20T04:55:19.746Z,12.33
2018-08-20T04:57:47.224Z,16.73
2018-08-20T05:00:14.741Z,12.10
2018-08-20T05:02:42.202Z,16.93
2018-08-20T05:05:09.716Z,17.03
2018-08-20T05:07:37.190Z,17.93
2018-08-20T05:10:04.907Z,14.10
2018-08-20T05:12:32.372Z,17.50
2018-08-20T05:14:59.842Z,14.13
2018-08-20T05:17:27.836Z,16.13
2018-08-20T05:19:55.319Z,19.40
2018-08-20T05:22:22.846Z,15.63
2018-08-20T05:24:50.365Z,15.73
2018-08-20T05:27:17.860Z,26.53
2018-08-20T05:29:45.357Z,17.57
2018-08-20T05:32:12.824Z,20.03
2018-08-20T05:34:40.296Z,16.43
2018-08-20T05:37:07.794Z,21.33
2018-08-20T05:39:35.284Z,21.33
2018-08-20T05:42:02.871Z,20.43
2018-08-20T05:44:30.394Z,18.93
2018-08-20T05:46:57.870Z,19.80
2018-08-20T05:49:25.361Z,15.20
2018-08-20T05:51:52.860Z,20.87
2018-08-20T05:54:20.402Z,21.80
2018-08-20T05:56:47.939Z,20.53
2018-08-20T05:59:15.522Z,23.37
2018-08-20T06:01:43.099Z,22.60
2018-08-20T06:04:10.713Z,25.63
2018-08-20T06:06:38.280Z,26.00
2018-08-20T06:09:07.427Z,20.07
2018-08-20T06:11:35.131Z,27.73
2018-08-20T06:14:02.653Z,23.63
2018-08-20T06:16:30.141Z,21.70
2018-08-20T06:18:57.718Z,24.17
2018-08-20T06:21:25.226Z,22.93
2018-08-20T06:23:52.741Z,24.27
2018-08-20T06:26:20.361Z,20.47
2018-08-20T06:28:47.913Z,28.70
2018-08-20T06:31:15.445Z,23.50
2018-08-20T06:33:43.009Z,25.77
2018-08-20T06:36:10.503Z,25.77
2018-08-20T06:38:38.011Z,24.87
2018-08-20T06:41:05.621Z,21.47
2018-08-20T06:43:33.101Z,24.10
2018-08-20T06:46:00.812Z,27.40
2018-08-20T06:48:28.399Z,18.30
2018-08-20T06:50:55.969Z,20.93
2018-08-20T06:53:23.702Z,21.27
2018-08-20T06:55:51.179Z,23.20
2018-08-20T06:58:18.718Z,24.13
2018-08-20T07:00:46.313Z,19.07
2018-08-20T07:03:13.835Z,24.87
2018-08-20T07:05:41.368Z,22.27
2018-08-20T07:08:09.197Z,20.93
2018-08-20T07:10:52.475Z,21.17
2018-08-20T07:13:37.186Z,22.47
2018-08-20T07:16:05.977Z,20.37
2018-08-20T07:18:33.496Z,22.10
2018-08-20T07:21:00.998Z,21.97
2018-08-20T07:23:29.157Z,19.80
2018-08-20T07:25:56.629Z,20.70
2018-08-20T07:28:24.135Z,23.97
2018-08-20T07:30:51.746Z,23.83
2018-08-20T07:33:19.319Z,14.83
2018-08-20T07:35:47.700Z,19.00
2018-08-20T07:38:15.289Z,21.47
2018-08-20T07:40:42.827Z,20.50
2018-08-20T07:43:10.363Z,13.77
2018-08-20T07:45:37.960Z,17.60
2018-08-20T07:48:05.762Z,19.50
2018-08-20T07:50:33.297Z,22.33
2018-08-20T07:53:00.857Z,22.00
2018-08-20T07:55:28.425Z,18.53
2018-08-20T07:57:55.956Z,19.50
2018-08-20T08:00:23.563Z,14.57
2018-08-20T08:02:51.057Z,17.67
2018-08-20T08:05:18.544Z,16.90
2018-08-20T08:07:46.047Z,17.73
2018-08-20T08:10:15.176Z,13.80
2018-08-20T08:12:42.732Z,15.27
2018-08-20T08:15:11.929Z,16.03
2018-08-20T08:17:39.790Z,16.00
2018-08-20T08:20:08.758Z,20.40
2018-08-20T08:22:36.844Z,18.77
2018-08-20T08:25:04.400Z,18.63
2018-08-20T08:27:31.919Z,16.43
2018-08-20T08:29:59.434Z,11.80
2018-08-20T08:32:26.953Z,19.73
2018-08-20T08:34:54.442Z,13.17
2018-08-20T08:37:21.949Z,12.80
2018-08-20T08:39:49.426Z,13.93
2018-08-20T08:42:17.006Z,19.53
2018-08-20T08:44:44.524Z,12.53
2018-08-20T08:47:12.030Z,13.00
2018-08-20T08:49:39.599Z,14.43
2018-08-20T08:52:07.084Z,14.13
2018-08-20T08:54:34.570Z,12.43
2018-08-20T08:57:02.068Z,11.53
2018-08-20T08:59:29.553Z,15.17
2018-08-20T09:01:57.049Z,14.00
2018-08-20T09:04:24.541Z,12.10
2018-08-20T09:06:52.032Z,13.83
2018-08-20T09:09:19.602Z,14.27
2018-08-20T09:11:47.109Z,13.40
2018-08-20T09:14:14.612Z,14.57
2018-08-20T09:16:42.299Z,17.57
2018-08-20T09:19:09.880Z,14.90
2018-08-20T09:21:37.440Z,12.70
2018-08-20T09:24:05.042Z,12.37
2018-08-20T09:26:32.574Z,10.77
2018-08-20T09:29:00.064Z,11.53
2018-08-20T09:31:27.576Z,11.77
2018-08-20T09:33:55.061Z,11.13
2018-08-20T09:36:22.589Z,12.23
2018-08-20T09:38:50.533Z,10.43
2018-08-20T09:41:18.038Z,13.73
2018-08-20T09:43:45.643Z,11.93
2018-08-20T09:46:13.213Z,11.47
2018-08-20T09:48:40.764Z,11.33
2018-08-20T09:51:08.312Z,8.70
2018-08-20T09:53:35.772Z,10.37
2018-08-20T09:56:04.151Z,13.80
2018-08-20T09:58:31.669Z,9.57
2018-08-20T10:00:59.177Z,9.97
2018-08-20T10:03:26.673Z,13.73
2018-08-20T10:05:54.216Z,9.20
2018-08-20T10:08:21.712Z,9.10
2018-08-20T10:10:49.209Z,9.83
2018-08-20T10:13:16.709Z,16.60
2018-08-20T10:15:44.209Z,10.73
2018-08-20T10:18:11.723Z,8.87
2018-08-20T10:20:39.230Z,8.93
2018-08-20T10:23:06.823Z,12.37
2018-08-20T10:25:34.341Z,9.83
2018-08-20T10:28:01.827Z,10.43
2018-08-20T10:30:29.295Z,7.03
2018-08-20T10:32:56.801Z,9.67
2018-08-20T10:35:24.289Z,9.97
2018-08-20T10:37:51.934Z,8.37
2018-08-20T10:40:19.273Z,10.43
2018-08-20T10:42:46.771Z,11.13
2018-08-20T10:45:17.206Z,11.97
2018-08-20T10:47:45.875Z,9.07
2018-08-20T10:50:14.104Z,8.37
2018-08-20T10:52:42.660Z,9.70
2018-08-20T10:55:10.139Z,5.70
2018-08-20T10:57:37.702Z,10.50
2018-08-20T11:00:05.556Z,7.93
2018-08-20T11:02:33.065Z,10.00
2018-08-20T11:05:00.586Z,8.50
2018-08-20T11:07:28.104Z,8.70
2018-08-20T11:09:55.638Z,6.93
2018-08-20T11:12:23.176Z,7.17
2018-08-20T11:14:50.684Z,9.00
2018-08-20T11:17:18.186Z,8.10
2018-08-20T11:19:45.742Z,10.87
2018-08-20T11:22:13.268Z,6.93
2018-08-20T11:24:40.748Z,6.90
2018-08-20T11:27:08.287Z,9.03
2018-08-20T11:29:35.840Z,8.53
2018-08-20T11:32:03.452Z,11.13
2018-08-20T11:34:30.998Z,12.10
2018-08-20T11:36:58.516Z,7.73
2018-08-20T11:39:25.992Z,6.50
2018-08-20T11:41:53.495Z,8.67
2018-08-20T11:44:20.988Z,6.67
2018-08-20T11:46:48.509Z,9.33
2018-08-20T11:49:16.255Z,6.63
2018-08-20T11:51:43.724Z,6.20
2018-08-20T11:54:11.214Z,8.10
2018-08-20T11:56:38.724Z,6.30
2018-08-20T11:59:06.261Z,8.30
2018-08-20T12:01:33.738Z,8.67
2018-08-20T12:04:01.274Z,7.97
2018-08-20T12:06:28.742Z,10.80
2018-08-20T12:08:56.247Z,8.27
2018-08-20T12:11:23.717Z,12.13
2018-08-20T12:13:51.250Z,8.53
2018-08-20T12:16:18.784Z,16.07
2018-08-20T12:18:46.296Z,9.83
2018-08-20T12:21:13.784Z,11.70
2018-08-20T12:23:41.261Z,11.30
2018-08-20T12:26:08.862Z,11.63
2018-08-20T12:28:36.332Z,9.97
2018-08-20T12:31:03.908Z,15.30
2018-08-20T12:33:31.372Z,12.83
2018-08-20T12:35:58.859Z,11.03
2018-08-20T12:38:26.355Z,8.73
2018-08-20T12:40:53.845Z,10.93
2018-08-20T12:43:21.320Z,10.67
2018-08-20T12:45:48.842Z,12.27
2018-08-20T12:48:16.344Z,9.97
2018-08-20T12:50:43.850Z,8.63
2018-08-20T12:53:11.354Z,10.70
2018-08-20T12:55:38.895Z,8.80
2018-08-20T12:58:06.386Z,11.40
2018-08-20T13:00:33.939Z,9.83
2018-08-20T13:03:01.415Z,8.63
2018-08-20T13:05:28.940Z,6.83
2018-08-20T13:07:56.406Z,5.10
2018-08-20T13:10:23.898Z,5.97
2018-08-20T13:12:51.401Z,8.43
2018-08-20T13:15:18.882Z,6.30
2018-08-20T13:17:46.352Z,10.23
2018-08-20T13:20:13.880Z,8.40
2018-08-20T13:22:41.370Z,6.80
2018-08-20T13:25:09.138Z,7.90
2018-08-20T13:27:36.680Z,8.03
2018-08-20T13:30:05.369Z,6.17
2018-08-20T13:32:32.952Z,6.50
2018-08-20T13:35:00.476Z,7.03
2018-08-20T13:37:27.990Z,5.07
2018-08-20T13:39:55.464Z,5.00
2018-08-20T13:42:22.932Z,10.60
2018-08-20T13:44:50.410Z,4.23
2018-08-20T13:47:17.911Z,4.30
2018-08-20T13:49:45.388Z,4.07
2018-08-20T13:52:12.961Z,2.70
2018-08-20T13:54:40.497Z,5.10
2018-08-20T13:57:07.987Z,2.80
2018-08-20T13:59:35.503Z,5.10
2018-08-20T14:02:03.121Z,1.60
2018-08-20T14:04:30.617Z,3.67
2018-08-20T14:06:58.115Z,4.67
2018-08-20T14:09:25.626Z,3.20
2018-08-20T14:11:53.210Z,9.57
2018-08-20T14:14:20.683Z,2.17
2018-08-20T14:16:48.202Z,2.30
2018-08-20T14:19:15.700Z,3.40
2018-08-20T14:21:43.208Z,4.63
2018-08-20T14:24:10.776Z,3.70
2018-08-20T14:26:38.263Z,2.40
2018-08-20T14:29:05.759Z,6.27
2018-08-20T14:31:33.241Z,3.40
2018-08-20T14:34:00.756Z,2.80
2018-08-20T14:36:28.285Z,3.17
2018-08-20T14:38:55.774Z,3.33
2018-08-20T14:41:23.303Z,3.80
2018-08-20T14:43:50.833Z,2.93
2018-08-20T14:46:28.645Z,1.97
2018-08-20T14:49:05.862Z,4.13
2018-08-20T14:51:33.441Z,3.43
2018-08-20T14:54:00.939Z,3.27
2018-08-20T14:56:28.450Z,5.90
2018-08-20T14:58:55.969Z,4.17
2018-08-20T15:01:23.446Z,2.93
2018-08-20T15:03:50.951Z,2.20
2018-08-20T15:06:18.511Z,1.97
2018-08-20T15:08:46.077Z,2.17
2018-08-20T15:11:13.569Z,5.10
2018-08-20T15:13:41.095Z,2.50
2018-08-20T15:16:08.669Z,1.57
2018-08-20T15:18:36.233Z,3.57
2018-08-20T15:21:03.733Z,3.60
2018-08-20T15:23:31.209Z,2.87
2018-08-20T15:25:58.715Z,1.60
2018-08-20T15:28:26.215Z,2.50
2018-08-20T15:30:53.682Z,3.20
2018-08-20T15:33:21.151Z,1.70
2018-08-20T15:35:48.644Z,3.70
2018-08-20T15:38:16.145Z,1.77
2018-08-20T15:40:43.671Z,1.60
2018-08-20T15:43:11.180Z,1.67
2018-08-20T15:45:38.692Z,2.03
2018-08-20T15:48:06.292Z,2.00
2018-08-20T15:50:33.793Z,2.20
2018-08-20T15:53:01.306Z,1.60
2018-08-20T15:55:28.745Z,2.97
2018-08-20T15:57:56.245Z,8.83
2018-08-20T16:00:23.784Z,3.40
2018-08-20T16:02:51.259Z,2.17
2018-08-20T16:05:18.811Z,2.30
2018-08-20T16:07:46.350Z,4.53
2018-08-20T16:10:13.857Z,2.67
2018-08-20T16:12:41.372Z,5.27
2018-08-20T16:15:09.565Z,3.40
2018-08-20T16:17:37.335Z,7.27
2018-08-20T16:20:05.004Z,9.07
2018-08-20T16:22:32.507Z,2.77
2018-08-20T16:25:00.052Z,2.83
2018-08-20T16:27:27.566Z,3.53
2018-08-20T16:29:55.075Z,2.17
2018-08-20T16:32:22.621Z,6.43
2018-08-20T16:34:50.138Z,2.73
2018-08-20T16:37:17.645Z,4.27
2018-08-20T16:39:45.301Z,3.07
2018-08-20T16:42:12.773Z,7.47
2018-08-20T16:44:40.321Z,3.80
2018-08-20T16:47:07.854Z,3.80
2018-08-20T16:49:35.599Z,4.10
2018-08-20T16:52:03.263Z,4.27
2018-08-20T16:54:30.805Z,4.73
2018-08-20T16:56:58.392Z,3.67
2018-08-20T16:59:25.916Z,3.23
2018-08-20T17:01:53.439Z,3.37
2018-08-20T17:04:29.950Z,4.33
2018-08-20T17:06:58.481Z,3.83
2018-08-20T17:09:26.148Z,4.83
2018-08-20T17:11:53.652Z,5.50
2018-08-20T17:14:21.177Z,3.13
2018-08-20T17:16:48.674Z,5.80
2018-08-20T17:19:16.237Z,2.97
2018-08-20T17:21:43.722Z,3.83
2018-08-20T17:24:11.248Z,2.63
2018-08-20T17:26:38.727Z,2.53
2018-08-20T17:29:10.752Z,3.00
2018-08-20T17:31:38.231Z,6.20
2018-08-20T17:34:05.783Z,2.57
2018-08-20T17:36:33.358Z,3.90
2018-08-20T17:39:01.074Z,2.77
2018-08-20T17:41:28.603Z,4.37
2018-08-20T17:43:56.094Z,4.60
2018-08-20T17:46:23.596Z,2.17
2018-08-20T17:48:51.094Z,2.00
2018-08-20T17:51:18.589Z,2.80
2018-08-20T17:53:52.704Z,4.37
2018-08-20T17:56:20.191Z,4.00
2018-08-20T17:58:51.594Z,5.07
2018-08-20T18:01:19.165Z,2.77
2018-08-20T18:03:46.601Z,3.37
2018-08-20T18:06:14.064Z,2.83
2018-08-20T18:08:41.553Z,2.00
2018-08-20T18:11:09.082Z,2.20
2018-08-20T18:13:41.872Z,2.70
2018-08-20T18:16:10.732Z,4.00
2018-08-20T18:18:39.234Z,4.50
2018-08-20T18:21:06.898Z,2.73
2018-08-20T18:23:35.494Z,3.13
2018-08-20T18:26:03.052Z,3.73
2018-08-20T18:28:43.208Z,3.10
2018-08-20T18:31:13.385Z,1.67
2018-08-20T18:33:41.791Z,2.90
2018-08-20T18:36:24.159Z,1.77
2018-08-20T18:38:59.906Z,2.33
2018-08-20T18:41:49.942Z,1.93
2018-08-20T18:44:17.959Z,2.43
2018-08-20T18:46:45.436Z,6.87
2018-08-20T18:49:13.051Z,2.03
2018-08-20T18:51:40.597Z,3.30
2018-08-20T18:54:08.117Z,1.53
2018-08-20T18:56:35.597Z,4.30
2018-08-20T18:59:03.178Z,1.50
2018-08-20T19:01:30.673Z,2.33
2018-08-20T19:03:58.214Z,1.77
2018-08-20T19:06:25.727Z,2.33
2018-08-20T19:08:53.244Z,3.00
2018-08-20T19:11:20.763Z,1.73
2018-08-20T19:13:48.341Z,1.93
2018-08-20T19:16:35.335Z,1.83
2018-08-20T19:19:03.049Z,2.07
2018-08-20T19:21:30.579Z,1.90
2018-08-20T19:23:59.616Z,5.37
2018-08-20T19:26:28.529Z,4.33
2018-08-20T19:28:56.053Z,2.40
2018-08-20T19:31:23.645Z,4.43
2018-08-20T19:33:51.223Z,3.50
2018-08-20T19:36:18.735Z,3.27
2018-08-20T19:38:46.259Z,2.57
2018-08-20T19:41:14.401Z,2.97
2018-08-20T19:43:46.891Z,2.50
2018-08-20T19:46:23.885Z,2.50
2018-08-20T19:48:56.188Z,2.87
2018-08-20T19:51:23.619Z,2.27
2018-08-20T19:53:51.247Z,2.37
2018-08-20T19:56:18.776Z,1.67
2018-08-20T19:58:46.227Z,2.43
2018-08-20T20:01:16.067Z,2.30
2018-08-20T20:03:45.483Z,2.77
2018-08-20T20:06:13.836Z,3.40
2018-08-20T20:08:41.449Z,3.37
2018-08-20T20:11:15.716Z,7.77
2018-08-20T20:13:43.202Z,3.23
2018-08-20T20:16:10.733Z,3.43
2018-08-20T20:18:38.240Z,4.97
2018-08-20T20:21:05.882Z,4.97
2018-08-20T20:23:33.425Z,5.83
2018-08-20T20:26:00.947Z,3.47
2018-08-20T20:28:28.433Z,4.47
2018-08-20T20:30:55.930Z,5.33
2018-08-20T20:33:23.449Z,3.60
2018-08-20T20:35:51.004Z,7.20
2018-08-20T20:38:18.540Z,5.63
2018-08-20T20:40:46.044Z,4.83
2018-08-20T20:43:15.064Z,6.13
2018-08-20T20:45:42.635Z,5.23
2018-08-20T20:48:10.122Z,4.40
2018-08-20T20:50:37.597Z,6.93
2018-08-20T20:53:05.134Z,7.33
2018-08-20T20:55:32.615Z,3.50
2018-08-20T20:58:00.102Z,6.43
2018-08-20T21:00:27.629Z,5.20
2018-08-20T21:03:02.712Z,7.23
2018-08-20T21:05:30.255Z,4.70
2018-08-20T21:07:57.808Z,5.90
2018-08-20T21:10:26.781Z,8.03
2018-08-20T21:12:54.319Z,3.93
2018-08-20T21:15:21.834Z,6.43
2018-08-20T21:17:49.352Z,3.40
2018-08-20T21:20:16.871Z,6.20
2018-08-20T21:22:44.361Z,5.80
2018-08-20T21:25:11.835Z,4.53
2018-08-20T21:27:39.375Z,6.77
2018-08-20T21:30:06.916Z,4.83
2018-08-20T21:32:34.502Z,4.40
2018-08-20T21:35:02.176Z,6.03
2018-08-20T21:37:29.688Z,5.33
2018-08-20T21:39:57.223Z,5.17
2018-08-20T21:42:43.563Z,6.43
2018-08-20T21:45:11.853Z,4.07
2018-08-20T21:47:39.347Z,6.97
2018-08-20T21:50:06.966Z,6.00
2018-08-20T21:52:34.502Z,5.83
2018-08-20T21:55:02.068Z,8.03
2018-08-20T21:57:29.568Z,7.37
2018-08-20T22:00:19.327Z,5.23
2018-08-20T22:02:49.721Z,7.27
2018-08-20T22:05:17.199Z,5.27
2018-08-20T22:07:45.052Z,8.03
2018-08-20T22:10:12.682Z,5.70
2018-08-20T22:12:40.133Z,7.67
2018-08-20T22:15:07.871Z,3.83
2018-08-20T22:17:35.381Z,4.83
2018-08-20T22:20:03.219Z,4.50
2018-08-20T22:22:30.760Z,7.63
2018-08-20T22:24:59.697Z,6.97
2018-08-20T22:27:28.085Z,4.53
2018-08-20T22:30:00.388Z,5.20
2018-08-20T22:32:28.417Z,6.53
2018-08-20T22:34:55.910Z,5.47
2018-08-20T22:37:23.387Z,6.13
2018-08-20T22:39:56.550Z,5.20
2018-08-20T22:42:41.262Z,5.10
2018-08-20T22:45:09.442Z,6.57
2018-08-20T22:47:37.430Z,6.27
2018-08-20T22:50:05.077Z,12.43
2018-08-20T22:52:32.577Z,8.80
2018-08-20T22:55:00.122Z,5.13
2018-08-20T22:57:34.474Z,5.87
2018-08-20T23:00:06.476Z,8.57
2018-08-20T23:02:33.962Z,6.50
2018-08-20T23:05:01.416Z,6.03
2018-08-20T23:07:28.981Z,4.57
2018-08-20T23:09:56.617Z,6.03
2018-08-20T23:12:32.749Z,5.23
2018-08-20T23:15:00.747Z,7.33
2018-08-20T23:17:28.225Z,7.40
2018-08-20T23:19:55.738Z,5.50
2018-08-20T23:22:23.254Z,7.73
2018-08-20T23:24:56.004Z,5.07
2018-08-20T23:27:28.056Z,6.73
2018-08-20T23:29:55.630Z,6.30
2018-08-20T23:32:23.374Z,5.17
2018-08-20T23:34:53.152Z,10.37
2018-08-20T23:37:27.680Z,11.50
2018-08-20T23:39:55.176Z,6.37
2018-08-20T23:42:22.672Z,7.23
2018-08-20T23:44:50.240Z,5.40
2018-08-20T23:47:17.708Z,5.27
2018-08-20T23:49:45.224Z,5.53
2018-08-20T23:52:12.702Z,4.40
2018-08-20T23:54:40.161Z,5.73
2018-08-20T23:57:07.657Z,8.07
2018-08-20T23:59:35.176Z,7.13
